Terminal Aerodrome Forecast
Issued by NWS

Current Version | Previous Version | Text Only | Print | Product List | Glossary On
Versions: 1 2 3 4 5 6 7 8 9 10 11 12 13 14 15
000
FTUS46 KLOX 252352
TAFWJF
TAF
KWJF 252352Z 2600/2624 23020G30KT P6SM SCT250
     FM260300 24015KT P6SM SCT250
     FM260500 25010KT P6SM SCT250
     FM261800 22012KT P6SM SCT250
     FM262100 23018G28KT P6SM SCT250=

USA.gov is the U.S. government's official web portal to all federal, state and local government web resources and services.